EJU87FX LFMN-LIPZ
Flight info
| Callsign | EJU87FX |
|---|---|
| Flight time | N/A |
| Altitude | 32000 |
| Route | BASIP8A BASIP DCT ANAKI DCT SUKOM Q125 NIMUM Z43 OTGIG OTGIG2E |
| Aircraft | A320/M-SDE2E3FGHIJ1RWXYZ/LB1 |
Departure
| Time | 2026-05-04 23:51 |
|---|---|
| Airport | Nice-Côte d'Azur Airport (LFMN) |
Arrival
| Time | N/A |
|---|---|
| Airport | Venice Marco Polo Airport (LIPZ) |
| Time | Latitude | Longitude | Altitude | Speed | Heading |
|---|---|---|---|---|---|
| 2026-05-04 23:36 | 43.66216 | 7.21386 | 26 ft | 0 kts | 135° |
| 2026-05-04 23:45 | 43.66215 | 7.21388 | 24 ft | 2 kts | 135° |
| 2026-05-04 23:45 | 43.66189 | 7.21423 | 22 ft | 6 kts | 135° |
| 2026-05-04 23:46 | 43.66163 | 7.21428 | 22 ft | 5 kts | 211° |
| 2026-05-04 23:46 | 43.66103 | 7.21355 | 22 ft | 17 kts | 224° |
| 2026-05-04 23:46 | 43.66006 | 7.21225 | 22 ft | 20 kts | 225° |
| 2026-05-04 23:46 | 43.65911 | 7.21095 | 22 ft | 19 kts | 225° |
| 2026-05-04 23:47 | 43.65820 | 7.20967 | 22 ft | 18 kts | 225° |
| 2026-05-04 23:47 | 43.65731 | 7.20844 | 22 ft | 18 kts | 225° |
| 2026-05-04 23:47 | 43.65646 | 7.20724 | 22 ft | 17 kts | 225° |
| 2026-05-04 23:47 | 43.65540 | 7.20694 | 22 ft | 15 kts | 169° |
| 2026-05-04 23:48 | 43.65447 | 7.20717 | 22 ft | 13 kts | 170° |
| 2026-05-04 23:48 | 43.65339 | 7.20738 | 22 ft | 17 kts | 174° |
| 2026-05-04 23:48 | 43.65238 | 7.20697 | 23 ft | 15 kts | 223° |
| 2026-05-04 23:48 | 43.65166 | 7.20602 | 22 ft | 14 kts | 224° |
| 2026-05-04 23:49 | 43.65087 | 7.20560 | 22 ft | 11 kts | 163° |
| 2026-05-04 23:49 | 43.65040 | 7.20616 | 22 ft | 7 kts | 133° |
| 2026-05-04 23:49 | 43.65007 | 7.20658 | 22 ft | 5 kts | 137° |
| 2026-05-04 23:49 | 43.65002 | 7.20692 | 22 ft | 5 kts | 54° |
| 2026-05-04 23:50 | 43.65013 | 7.20712 | 23 ft | 0 kts | 46° |
| 2026-05-04 23:50 | 43.65095 | 7.20824 | 22 ft | 49 kts | 44° |
| 2026-05-04 23:50 | 43.65507 | 7.21389 | 26 ft | 114 kts | 44° |
| 2026-05-04 23:50 | 43.66205 | 7.22329 | 29 ft | 164 kts | 41° |
| 2026-05-04 23:51 | 43.66947 | 7.23560 | 632 ft | 166 kts | 68° |
| 2026-05-04 23:51 | 43.67030 | 7.25130 | 1326 ft | 169 kts | 102° |
| 2026-05-04 23:51 | 43.66456 | 7.26630 | 1706 ft | 191 kts | 132° |
| 2026-05-04 23:51 | 43.65479 | 7.28030 | 2050 ft | 212 kts | 131° |
| 2026-05-04 23:52 | 43.64465 | 7.29522 | 2891 ft | 212 kts | 131° |
| 2026-05-04 23:52 | 43.63611 | 7.31155 | 3760 ft | 210 kts | 109° |
| 2026-05-04 23:52 | 43.63421 | 7.33127 | 4609 ft | 209 kts | 81° |
| 2026-05-04 23:52 | 43.63853 | 7.35036 | 5425 ft | 210 kts | 71° |
| 2026-05-04 23:53 | 43.64361 | 7.36949 | 6151 ft | 216 kts | 72° |
| 2026-05-04 23:53 | 43.64878 | 7.38923 | 6810 ft | 222 kts | 73° |
| 2026-05-04 23:53 | 43.65396 | 7.40926 | 7472 ft | 227 kts | 73° |
| 2026-05-04 23:53 | 43.65940 | 7.43033 | 8170 ft | 232 kts | 74° |
| 2026-05-04 23:54 | 43.66480 | 7.45124 | 8863 ft | 237 kts | 74° |
| 2026-05-04 23:54 | 43.67038 | 7.47291 | 9575 ft | 242 kts | 75° |
| 2026-05-04 23:54 | 43.67608 | 7.49509 | 10210 ft | 250 kts | 75° |
| 2026-05-04 23:54 | 43.68226 | 7.51880 | 10473 ft | 274 kts | 74° |
| 2026-05-04 23:55 | 43.68907 | 7.54461 | 10726 ft | 298 kts | 73° |
| 2026-05-04 23:55 | 43.69648 | 7.57259 | 10956 ft | 322 kts | 73° |
| 2026-05-04 23:55 | 43.71265 | 7.63309 | 12041 ft | 343 kts | 72° |
| 2026-05-04 23:56 | 43.72101 | 7.66422 | 12746 ft | 347 kts | 72° |
| 2026-05-04 23:56 | 43.72958 | 7.69568 | 13431 ft | 353 kts | 69° |
| 2026-05-04 23:56 | 43.74193 | 7.72539 | 14064 ft | 361 kts | 54° |
| 2026-05-04 23:56 | 43.75845 | 7.75187 | 14658 ft | 366 kts | 50° |
| 2026-05-04 23:57 | 43.77544 | 7.77840 | 15259 ft | 370 kts | 50° |
| 2026-05-04 23:57 | 43.79262 | 7.80527 | 15836 ft | 375 kts | 50° |
| 2026-05-04 23:57 | 43.81004 | 7.83254 | 16413 ft | 380 kts | 50° |
| 2026-05-04 23:57 | 43.82770 | 7.86018 | 16976 ft | 386 kts | 50° |
| 2026-05-04 23:58 | 43.84559 | 7.88822 | 17542 ft | 391 kts | 50° |
| 2026-05-04 23:58 | 43.86370 | 7.91662 | 18101 ft | 396 kts | 50° |
| 2026-05-04 23:58 | 43.88202 | 7.94544 | 18626 ft | 401 kts | 50° |
| 2026-05-04 23:58 | 43.89850 | 7.97661 | 19124 ft | 402 kts | 61° |
| 2026-05-04 23:59 | 43.91223 | 8.01034 | 19740 ft | 402 kts | 63° |
| 2026-05-04 23:59 | 43.92595 | 8.04420 | 20303 ft | 404 kts | 63° |
| 2026-05-04 23:59 | 43.93982 | 8.07827 | 20812 ft | 407 kts | 63° |
| 2026-05-04 23:59 | 43.95388 | 8.11262 | 21328 ft | 411 kts | 63° |
| 2026-05-05 00:00 | 43.96784 | 8.14676 | 21804 ft | 414 kts | 63° |
| 2026-05-05 00:00 | 43.97262 | 8.15847 | 21963 ft | 415 kts | 63° |
| 2026-05-05 00:00 | 43.99659 | 8.21732 | 22755 ft | 420 kts | 63° |
| 2026-05-05 00:00 | 44.01082 | 8.25233 | 23228 ft | 424 kts | 63° |
| 2026-05-05 00:01 | 44.02536 | 8.28813 | 23674 ft | 427 kts | 63° |
| 2026-05-05 00:01 | 44.03994 | 8.32416 | 24061 ft | 429 kts | 63° |
| 2026-05-05 00:01 | 44.05459 | 8.36041 | 24439 ft | 432 kts | 63° |
| 2026-05-05 00:01 | 44.06930 | 8.39688 | 24836 ft | 434 kts | 63° |
| 2026-05-05 00:02 | 44.08407 | 8.43361 | 25222 ft | 436 kts | 63° |
| 2026-05-05 00:02 | 44.09891 | 8.47057 | 25591 ft | 439 kts | 63° |
| 2026-05-05 00:02 | 44.11383 | 8.50774 | 25942 ft | 442 kts | 63° |
| 2026-05-05 00:02 | 44.12889 | 8.54519 | 26283 ft | 445 kts | 63° |
| 2026-05-05 00:03 | 44.14405 | 8.58287 | 26638 ft | 448 kts | 63° |
| 2026-05-05 00:03 | 44.15933 | 8.62084 | 26989 ft | 450 kts | 63° |
| 2026-05-05 00:03 | 44.17464 | 8.65903 | 27337 ft | 453 kts | 63° |
| 2026-05-05 00:03 | 44.18975 | 8.69756 | 27681 ft | 454 kts | 67° |
| 2026-05-05 00:04 | 44.20146 | 8.73835 | 27989 ft | 453 kts | 76° |
| 2026-05-05 00:04 | 44.20854 | 8.78108 | 28294 ft | 453 kts | 83° |
| 2026-05-05 00:04 | 44.21411 | 8.82453 | 28618 ft | 456 kts | 83° |
| 2026-05-05 00:04 | 44.21979 | 8.86818 | 28945 ft | 459 kts | 83° |
| 2026-05-05 00:05 | 44.22557 | 8.91202 | 29265 ft | 462 kts | 83° |
| 2026-05-05 00:05 | 44.23140 | 8.95619 | 29589 ft | 464 kts | 83° |
| 2026-05-05 00:05 | 44.23724 | 9.00050 | 29905 ft | 466 kts | 83° |
| 2026-05-05 00:05 | 44.24309 | 9.04509 | 30187 ft | 469 kts | 83° |
| 2026-05-05 00:06 | 44.24893 | 9.08989 | 30437 ft | 471 kts | 83° |
| 2026-05-05 00:06 | 44.25478 | 9.13500 | 30685 ft | 473 kts | 83° |
| 2026-05-05 00:06 | 44.26064 | 9.18029 | 30922 ft | 475 kts | 83° |
| 2026-05-05 00:06 | 44.26649 | 9.22574 | 31155 ft | 478 kts | 83° |
| 2026-05-05 00:07 | 44.27233 | 9.27145 | 31409 ft | 479 kts | 83° |
| 2026-05-05 00:07 | 44.27816 | 9.31722 | 31756 ft | 479 kts | 83° |
| 2026-05-05 00:07 | 44.28398 | 9.36297 | 31999 ft | 479 kts | 83° |
| 2026-05-05 00:07 | 44.28975 | 9.40832 | 32050 ft | 467 kts | 83° |
| 2026-05-05 00:08 | 44.29539 | 9.45244 | 32049 ft | 458 kts | 83° |
| 2026-05-05 00:08 | 44.30636 | 9.53941 | 32063 ft | 454 kts | 83° |
| 2026-05-05 00:09 | 44.31712 | 9.62624 | 32066 ft | 454 kts | 83° |
| 2026-05-05 00:09 | 44.32790 | 9.71307 | 32078 ft | 454 kts | 83° |
| 2026-05-05 00:10 | 44.33862 | 9.79983 | 32068 ft | 454 kts | 83° |
| 2026-05-05 00:10 | 44.34930 | 9.88669 | 32056 ft | 454 kts | 83° |
| 2026-05-05 00:11 | 44.35807 | 9.95897 | 32055 ft | 454 kts | 83° |